createdAt,value
2023-01-13T00:00:32.972Z,79.15
2023-01-13T00:02:59.588Z,79.87
2023-01-13T00:05:26.725Z,77.75
2023-01-13T00:07:53.361Z,77.11
2023-01-13T00:10:19.882Z,80.17
2023-01-13T00:12:46.379Z,80.35
2023-01-13T00:15:13.392Z,79.86
2023-01-13T00:17:39.943Z,79.85
2023-01-13T00:20:07.510Z,81.06
2023-01-13T00:22:35.403Z,79.20
2023-01-13T00:25:04.236Z,79.06
2023-01-13T00:27:31.550Z,78.77
2023-01-13T00:29:58.153Z,77.73
2023-01-13T00:32:24.699Z,77.70
2023-01-13T00:34:51.279Z,79.46
2023-01-13T00:37:17.775Z,78.41
2023-01-13T00:39:44.388Z,78.18
2023-01-13T00:42:29.493Z,77.85
2023-01-13T00:44:56.001Z,75.11
2023-01-13T00:47:23.390Z,76.37
2023-01-13T00:49:50.174Z,75.74
2023-01-13T00:52:16.613Z,75.65
2023-01-13T00:54:43.077Z,77.37
2023-01-13T00:57:09.582Z,77.39
2023-01-13T00:59:36.040Z,75.67
2023-01-13T01:02:02.622Z,79.07
2023-01-13T01:04:29.138Z,75.62
2023-01-13T01:06:55.607Z,76.15
2023-01-13T01:09:22.061Z,75.29
2023-01-13T01:11:48.490Z,79.90
2023-01-13T01:14:15.018Z,76.73
2023-01-13T01:16:42.270Z,75.99
2023-01-13T01:19:10.086Z,75.77
2023-01-13T01:21:36.646Z,75.30
2023-01-13T01:24:04.154Z,75.07
2023-01-13T01:26:31.933Z,75.25
2023-01-13T01:28:59.115Z,72.45
2023-01-13T01:31:28.339Z,72.28
2023-01-13T01:33:55.305Z,73.37
2023-01-13T01:36:23.528Z,72.98
2023-01-13T01:38:50.304Z,73.09
2023-01-13T01:41:20.659Z,76.05
2023-01-13T01:43:59.485Z,74.74
2023-01-13T01:46:33.879Z,76.97
2023-01-13T01:49:05.857Z,77.39
2023-01-13T01:51:36.822Z,77.21
2023-01-13T01:54:07.600Z,74.49
2023-01-13T01:56:35.828Z,74.99
2023-01-13T01:59:02.337Z,74.23
2023-01-13T02:01:29.038Z,75.85
2023-01-13T02:04:05.144Z,73.66
2023-01-13T02:06:31.782Z,75.13
2023-01-13T02:08:59.734Z,73.97
2023-01-13T02:12:09.483Z,74.87
2023-01-13T02:14:37.670Z,75.51
2023-01-13T02:17:13.791Z,75.07
2023-01-13T02:20:01.906Z,77.61
2023-01-13T02:23:00.799Z,76.35
2023-01-13T02:25:45.553Z,71.83
2023-01-13T02:28:28.183Z,73.42
2023-01-13T02:31:26.884Z,73.31
2023-01-13T02:34:11.280Z,73.63
2023-01-13T02:36:46.401Z,72.58
2023-01-13T02:39:32.962Z,75.34
2023-01-13T02:42:25.187Z,75.31
2023-01-13T02:44:56.862Z,75.20
2023-01-13T02:47:26.827Z,73.04
2023-01-13T02:49:59.053Z,74.60
2023-01-13T02:52:39.286Z,74.97
2023-01-13T02:55:11.427Z,73.12
2023-01-13T02:57:39.682Z,76.57
2023-01-13T03:00:07.557Z,78.75
2023-01-13T03:02:34.104Z,75.96
2023-01-13T03:05:00.820Z,73.82
2023-01-13T03:07:46.013Z,71.39
2023-01-13T03:10:12.384Z,72.94
2023-01-13T03:12:57.589Z,74.68
2023-01-13T03:15:37.020Z,74.09
2023-01-13T03:18:33.871Z,72.29
2023-01-13T03:21:23.410Z,73.71
2023-01-13T03:24:02.182Z,72.55
2023-01-13T03:26:28.535Z,73.63
2023-01-13T03:29:15.051Z,74.97
2023-01-13T03:31:53.535Z,73.31
2023-01-13T03:34:25.318Z,71.80
2023-01-13T03:36:54.918Z,73.96
2023-01-13T03:39:29.215Z,72.99
2023-01-13T03:42:02.143Z,75.29
2023-01-13T03:44:40.048Z,72.52
2023-01-13T03:47:20.147Z,72.59
2023-01-13T03:50:02.548Z,73.57
2023-01-13T03:52:37.107Z,74.07
2023-01-13T03:55:18.953Z,74.04
2023-01-13T03:58:15.990Z,75.13
2023-01-13T04:00:56.132Z,71.54
2023-01-13T04:03:38.324Z,72.79
2023-01-13T04:06:15.823Z,73.63
2023-01-13T04:08:49.245Z,71.65
2023-01-13T04:11:22.503Z,71.27
2023-01-13T04:13:50.418Z,68.36
2023-01-13T04:16:16.825Z,68.29
2023-01-13T04:18:43.266Z,70.86
2023-01-13T04:21:09.853Z,69.53
2023-01-13T04:23:36.409Z,69.23
2023-01-13T04:26:03.151Z,69.13
2023-01-13T04:28:29.611Z,69.36
2023-01-13T04:30:56.091Z,66.37
2023-01-13T04:33:22.580Z,66.88
2023-01-13T04:35:49.028Z,65.66
2023-01-13T04:38:17.814Z,64.37
2023-01-13T04:40:44.736Z,63.79
2023-01-13T04:43:11.173Z,65.79
2023-01-13T04:45:37.996Z,63.78
2023-01-13T04:48:05.241Z,65.36
2023-01-13T04:50:31.795Z,65.76
2023-01-13T04:52:58.225Z,64.75
2023-01-13T04:55:25.141Z,67.72
2023-01-13T04:57:51.993Z,66.29
2023-01-13T05:00:21.086Z,66.48
2023-01-13T05:02:49.775Z,66.29
2023-01-13T05:05:16.221Z,63.93
2023-01-13T05:07:42.648Z,65.57
2023-01-13T05:10:09.785Z,64.85
2023-01-13T05:12:54.643Z,63.32
2023-01-13T05:15:39.534Z,63.22
2023-01-13T05:18:06.269Z,62.60
2023-01-13T05:20:32.681Z,61.58
2023-01-13T05:23:17.428Z,64.56
2023-01-13T05:25:47.530Z,61.51
2023-01-13T05:28:14.448Z,60.55
2023-01-13T05:30:44.262Z,62.23
2023-01-13T05:33:12.030Z,61.61
2023-01-13T05:35:42.888Z,59.98
2023-01-13T05:38:09.858Z,62.50
2023-01-13T05:40:59.042Z,61.47
2023-01-13T05:43:26.858Z,61.31
2023-01-13T05:46:08.933Z,59.59
2023-01-13T05:48:38.301Z,64.11
2023-01-13T05:51:07.263Z,61.71
2023-01-13T05:53:34.426Z,60.66
2023-01-13T05:56:04.426Z,59.31
2023-01-13T06:01:08.246Z,60.12
2023-01-13T06:03:35.816Z,61.07
2023-01-13T06:06:03.926Z,59.01
2023-01-13T06:08:31.768Z,59.22
2023-01-13T06:10:58.307Z,59.58
2023-01-13T06:16:07.745Z,62.71
2023-01-13T06:18:34.247Z,59.60
2023-01-13T06:21:00.668Z,60.06
2023-01-13T06:23:27.124Z,60.58
2023-01-13T06:26:03.428Z,63.00
2023-01-13T06:28:29.838Z,64.28
2023-01-13T06:31:00.692Z,60.84
2023-01-13T06:33:33.793Z,61.46
2023-01-13T06:36:05.861Z,60.56
2023-01-13T06:38:36.569Z,63.92
2023-01-13T06:41:04.494Z,63.35
2023-01-13T06:43:30.924Z,62.86
2023-01-13T06:45:57.345Z,63.36
2023-01-13T06:48:27.896Z,62.70
2023-01-13T06:50:54.319Z,60.48
2023-01-13T06:53:20.987Z,61.88
2023-01-13T06:55:47.390Z,60.90
2023-01-13T06:58:13.856Z,65.14
2023-01-13T07:00:40.399Z,62.18
2023-01-13T07:03:07.191Z,63.24
2023-01-13T07:05:33.733Z,60.37
2023-01-13T07:08:00.396Z,60.77
2023-01-13T07:10:26.874Z,60.49
2023-01-13T07:13:11.777Z,61.55
2023-01-13T07:15:38.237Z,62.79
2023-01-13T07:18:04.662Z,63.30
2023-01-13T07:20:31.301Z,63.65
2023-01-13T07:22:58.386Z,61.95
2023-01-13T07:25:25.440Z,60.51
2023-01-13T07:27:51.930Z,60.87
2023-01-13T07:30:18.642Z,62.67
2023-01-13T07:32:45.103Z,61.69
2023-01-13T07:35:11.556Z,61.50
2023-01-13T07:37:39.378Z,62.18
2023-01-13T07:40:06.787Z,60.20
2023-01-13T07:42:51.738Z,60.27
2023-01-13T07:45:18.137Z,59.33
2023-01-13T07:47:44.563Z,59.37
2023-01-13T07:50:11.409Z,59.53
2023-01-13T07:52:37.862Z,60.73
2023-01-13T07:55:07.168Z,59.24
2023-01-13T07:57:33.722Z,58.90
2023-01-13T08:00:00.212Z,59.85
2023-01-13T08:02:26.896Z,60.98
2023-01-13T08:04:53.453Z,60.44
2023-01-13T08:07:20.034Z,57.79
2023-01-13T08:09:46.459Z,58.44
2023-01-13T08:12:31.205Z,56.85
2023-01-13T08:14:57.706Z,58.58
2023-01-13T08:17:24.362Z,56.40
2023-01-13T08:19:50.827Z,51.92
2023-01-13T08:22:17.404Z,52.44
2023-01-13T08:24:43.923Z,50.70
2023-01-13T08:27:10.334Z,50.85
2023-01-13T08:29:36.877Z,51.95
2023-01-13T08:32:03.390Z,53.59
2023-01-13T08:34:29.852Z,53.29
2023-01-13T08:36:56.300Z,55.98
2023-01-13T08:39:25.046Z,55.11
2023-01-13T08:41:58.466Z,58.76
2023-01-13T08:44:30.352Z,57.96
2023-01-13T08:46:57.183Z,58.64
2023-01-13T08:49:24.651Z,57.85
2023-01-13T08:51:52.357Z,55.35
2023-01-13T08:54:19.496Z,54.70
2023-01-13T08:56:47.106Z,57.01
2023-01-13T08:59:18.537Z,53.72
2023-01-13T09:01:45.825Z,51.09
2023-01-13T09:04:17.380Z,48.41
2023-01-13T09:06:44.861Z,46.99
2023-01-13T09:09:11.721Z,45.92
2023-01-13T09:12:00.278Z,47.37
2023-01-13T09:14:29.807Z,45.85
2023-01-13T09:16:56.428Z,48.21
2023-01-13T09:19:22.895Z,44.78
2023-01-13T09:21:49.351Z,45.74
2023-01-13T09:24:16.010Z,44.55
2023-01-13T09:26:42.587Z,44.29
2023-01-13T09:29:11.706Z,42.43
2023-01-13T09:31:38.176Z,45.11
2023-01-13T09:34:24.674Z,47.36
2023-01-13T09:36:51.615Z,48.43
2023-01-13T09:39:18.531Z,50.23
2023-01-13T09:42:08.292Z,50.04
2023-01-13T09:44:49.981Z,46.57
2023-01-13T09:47:59.856Z,45.49
2023-01-13T09:50:48.503Z,48.98
2023-01-13T09:53:23.014Z,51.45
2023-01-13T09:55:49.623Z,48.46
2023-01-13T09:58:18.463Z,52.42
2023-01-13T10:01:06.513Z,50.98
2023-01-13T10:03:35.018Z,51.22
2023-01-13T10:06:19.974Z,51.96
2023-01-13T10:08:48.955Z,51.86
2023-01-13T10:11:37.143Z,54.17
2023-01-13T10:14:18.275Z,50.95
2023-01-13T10:16:55.155Z,52.47
2023-01-13T10:19:28.550Z,53.21
2023-01-13T10:22:04.802Z,51.92
2023-01-13T10:24:58.973Z,52.59
2023-01-13T10:27:34.434Z,52.05
2023-01-13T10:30:21.465Z,50.94
2023-01-13T10:32:57.186Z,50.17
2023-01-13T10:35:49.628Z,50.60
2023-01-13T10:38:19.021Z,50.06
2023-01-13T10:40:50.687Z,51.03
2023-01-13T10:43:17.147Z,50.57
2023-01-13T10:45:55.736Z,50.31
2023-01-13T10:48:22.205Z,51.54
2023-01-13T10:50:49.108Z,50.01
2023-01-13T10:53:23.582Z,50.24
2023-01-13T10:56:01.659Z,50.69
2023-01-13T10:58:28.962Z,51.23
2023-01-13T11:01:02.114Z,50.50
2023-01-13T11:03:37.821Z,52.07
2023-01-13T11:06:04.549Z,51.07
2023-01-13T11:08:42.091Z,51.18
2023-01-13T11:11:27.385Z,49.83
2023-01-13T11:14:20.545Z,49.88
2023-01-13T11:16:53.993Z,51.32
2023-01-13T11:19:24.840Z,49.52
2023-01-13T11:21:58.165Z,48.02
2023-01-13T11:24:27.701Z,48.87
2023-01-13T11:27:01.871Z,48.95
2023-01-13T11:29:45.075Z,49.61
2023-01-13T11:32:24.260Z,49.25
2023-01-13T11:35:04.398Z,49.64
2023-01-13T11:37:34.470Z,48.67
2023-01-13T11:40:07.643Z,49.06
2023-01-13T11:42:50.940Z,50.67
2023-01-13T11:45:23.923Z,48.37
2023-01-13T11:47:54.608Z,51.08
2023-01-13T11:50:48.210Z,47.63
2023-01-13T11:53:33.230Z,50.36
2023-01-13T11:56:19.927Z,50.53
2023-01-13T11:59:06.087Z,49.77
2023-01-13T12:01:54.245Z,48.98
2023-01-13T12:04:23.379Z,49.61
2023-01-13T12:07:15.927Z,50.68
2023-01-13T12:09:53.761Z,49.64
2023-01-13T12:12:37.876Z,48.77
2023-01-13T12:15:16.518Z,49.49
2023-01-13T12:17:52.463Z,50.08
2023-01-13T12:20:39.366Z,51.64
2023-01-13T12:23:25.090Z,52.40
2023-01-13T12:25:57.622Z,49.39
2023-01-13T12:28:43.341Z,50.50
2023-01-13T12:31:10.518Z,50.58
2023-01-13T12:34:07.669Z,51.37
2023-01-13T12:36:54.937Z,52.75
2023-01-13T12:39:40.359Z,51.27
2023-01-13T12:42:34.563Z,50.55
2023-01-13T12:45:09.840Z,51.19
2023-01-13T12:47:43.589Z,50.59
2023-01-13T12:50:37.082Z,50.79
2023-01-13T12:53:29.572Z,51.28
2023-01-13T12:56:24.853Z,50.00
2023-01-13T12:58:51.359Z,50.23
2023-01-13T13:01:18.628Z,48.17
2023-01-13T13:04:08.295Z,49.37
2023-01-13T13:06:37.338Z,49.98
2023-01-13T13:09:25.346Z,50.58
2023-01-13T13:12:03.800Z,50.11
2023-01-13T13:14:39.498Z,49.81
2023-01-13T13:17:25.332Z,48.67
2023-01-13T13:19:52.358Z,47.43
2023-01-13T13:22:21.875Z,47.47
2023-01-13T13:24:51.232Z,49.66
2023-01-13T13:27:19.897Z,51.73
2023-01-13T13:30:03.062Z,49.97
2023-01-13T13:32:47.902Z,51.01
2023-01-13T13:35:14.267Z,52.59
2023-01-13T13:38:37.424Z,50.66
2023-01-13T13:41:41.746Z,50.85
2023-01-13T13:44:40.776Z,56.07
2023-01-13T13:47:07.814Z,57.88
2023-01-13T13:49:44.706Z,56.90
2023-01-13T13:52:42.543Z,54.65
2023-01-13T13:55:19.015Z,55.73
2023-01-13T13:57:50.702Z,55.60
2023-01-13T14:00:22.912Z,56.02
2023-01-13T14:02:54.081Z,54.42
2023-01-13T14:05:28.742Z,55.27
2023-01-13T14:07:59.405Z,54.15
2023-01-13T14:10:40.316Z,55.42
2023-01-13T14:13:30.693Z,55.73
2023-01-13T14:16:02.483Z,53.16
2023-01-13T14:18:32.391Z,56.91
2023-01-13T14:21:17.371Z,56.95
2023-01-13T14:23:52.191Z,56.76
2023-01-13T14:26:23.541Z,56.25
2023-01-13T14:28:50.580Z,55.66
2023-01-13T14:31:17.341Z,56.00
2023-01-13T14:33:49.860Z,55.85
2023-01-13T14:36:22.531Z,56.63
2023-01-13T14:39:04.134Z,59.09
2023-01-13T14:41:37.629Z,56.85
2023-01-13T14:44:18.558Z,55.99
2023-01-13T14:46:45.964Z,59.48
2023-01-13T14:49:28.452Z,58.76
2023-01-13T14:52:23.392Z,59.63
2023-01-13T14:54:54.028Z,60.36
2023-01-13T14:57:31.925Z,58.92
2023-01-13T15:00:13.706Z,62.43
2023-01-13T15:02:40.134Z,62.98
2023-01-13T15:05:24.674Z,60.41
2023-01-13T15:07:52.339Z,59.68
2023-01-13T15:10:25.064Z,61.58
2023-01-13T15:12:54.000Z,59.41
2023-01-13T15:15:30.223Z,61.34
2023-01-13T15:17:56.996Z,61.00
2023-01-13T15:20:24.370Z,64.04
2023-01-13T15:22:52.206Z,64.08
2023-01-13T15:25:18.927Z,62.41
2023-01-13T15:27:47.752Z,61.57
2023-01-13T15:30:16.567Z,63.27
2023-01-13T15:32:43.766Z,59.65
2023-01-13T15:35:16.815Z,62.59
2023-01-13T15:37:44.844Z,63.33
2023-01-13T15:40:38.784Z,61.41
2023-01-13T15:43:23.729Z,61.75
2023-01-13T15:46:09.115Z,59.17
2023-01-13T15:48:36.405Z,60.23
2023-01-13T15:51:04.024Z,59.72
2023-01-13T15:53:30.535Z,59.99
2023-01-13T15:55:58.851Z,61.39
2023-01-13T15:58:28.510Z,61.09
2023-01-13T16:00:55.606Z,63.75
2023-01-13T16:03:22.376Z,62.54
2023-01-13T16:05:48.959Z,64.37
2023-01-13T16:08:20.010Z,63.66
2023-01-13T16:10:47.404Z,61.64
2023-01-13T16:13:14.962Z,63.35
2023-01-13T16:15:50.519Z,61.79
2023-01-13T16:18:24.275Z,64.02
2023-01-13T16:20:55.125Z,62.22
2023-01-13T16:23:23.038Z,60.12
2023-01-13T16:25:50.433Z,63.93
2023-01-13T16:28:21.329Z,64.65
2023-01-13T16:30:48.323Z,65.98
2023-01-13T16:33:14.818Z,64.48
2023-01-13T16:36:08.871Z,62.63
2023-01-13T16:38:27.736Z,60.92
2023-01-13T16:40:56.836Z,64.31
2023-01-13T16:43:23.234Z,63.48
2023-01-13T16:45:49.649Z,63.22
2023-01-13T16:48:19.582Z,63.60
2023-01-13T16:50:46.437Z,63.47
2023-01-13T16:53:12.915Z,63.06
2023-01-13T16:55:41.227Z,64.91
2023-01-13T16:58:16.554Z,61.61
2023-01-13T17:00:46.581Z,63.79
2023-01-13T17:03:14.230Z,61.68
2023-01-13T17:05:45.357Z,63.57
2023-01-13T17:08:17.204Z,59.93
2023-01-13T17:10:45.405Z,61.96
2023-01-13T17:13:16.376Z,63.64
2023-01-13T17:15:43.421Z,61.60
2023-01-13T17:18:11.432Z,62.72
2023-01-13T17:20:37.839Z,60.88
2023-01-13T17:23:04.285Z,63.61
2023-01-13T17:25:30.756Z,64.06
2023-01-13T17:27:57.731Z,62.04
2023-01-13T17:30:24.248Z,60.80
2023-01-13T17:32:50.692Z,62.14
2023-01-13T17:35:19.393Z,61.33
2023-01-13T17:37:46.074Z,60.37
2023-01-13T17:40:12.896Z,61.43
2023-01-13T17:42:39.338Z,59.91
2023-01-13T17:45:06.937Z,60.54
2023-01-13T17:47:33.341Z,59.14
2023-01-13T17:49:59.944Z,60.55
2023-01-13T17:52:26.380Z,61.21
2023-01-13T17:54:52.856Z,61.41
2023-01-13T17:57:19.340Z,59.68
2023-01-13T17:59:47.833Z,59.63
2023-01-13T18:02:14.637Z,58.71
2023-01-13T18:04:41.977Z,60.45
2023-01-13T18:07:08.657Z,59.33
2023-01-13T18:09:35.047Z,60.00
2023-01-13T18:12:01.876Z,62.77
2023-01-13T18:14:28.349Z,63.29
2023-01-13T18:17:03.894Z,60.70
2023-01-13T18:19:49.037Z,60.46
2023-01-13T18:22:34.480Z,62.13
2023-01-13T18:25:22.786Z,60.80
2023-01-13T18:27:49.212Z,61.04
2023-01-13T18:30:15.954Z,62.27
2023-01-13T18:32:42.431Z,62.33
2023-01-13T18:35:10.433Z,62.36
2023-01-13T18:37:42.227Z,60.17
2023-01-13T18:40:11.226Z,62.18
2023-01-13T18:42:55.967Z,63.78
2023-01-13T18:45:25.967Z,64.52
2023-01-13T18:47:54.548Z,65.14
2023-01-13T18:50:22.275Z,65.84
2023-01-13T18:53:13.299Z,65.94
2023-01-13T18:59:04.907Z,65.39
2023-01-13T19:01:31.554Z,63.69
2023-01-13T19:04:10.272Z,64.80
2023-01-13T19:06:39.700Z,63.36
2023-01-13T19:09:10.994Z,62.39
2023-01-13T19:11:37.495Z,65.11
2023-01-13T19:14:04.536Z,65.49
2023-01-13T19:16:30.991Z,64.17
2023-01-13T19:18:57.398Z,65.38
2023-01-13T19:21:24.777Z,66.15
2023-01-13T19:23:55.804Z,66.85
2023-01-13T19:26:22.222Z,66.21
2023-01-13T19:28:48.675Z,69.36
2023-01-13T19:31:17.365Z,67.46
2023-01-13T19:33:43.809Z,63.38
2023-01-13T19:36:10.801Z,67.11
2023-01-13T19:38:37.895Z,64.53
2023-01-13T19:41:11.514Z,65.84
2023-01-13T19:43:56.413Z,67.42
2023-01-13T19:46:25.709Z,70.94
2023-01-13T19:48:52.165Z,76.20
2023-01-13T19:51:18.581Z,74.69
2023-01-13T19:53:46.780Z,73.68
2023-01-13T19:56:14.377Z,76.03
2023-01-13T19:58:41.994Z,71.75
2023-01-13T20:01:10.135Z,73.85
2023-01-13T20:03:37.701Z,73.42
2023-01-13T20:06:08.682Z,76.16
2023-01-13T20:08:35.116Z,76.11
2023-01-13T20:11:21.407Z,76.10
2023-01-13T20:13:49.278Z,75.64
2023-01-13T20:16:15.746Z,73.83
2023-01-13T20:18:42.188Z,76.04
2023-01-13T20:21:08.901Z,73.65
2023-01-13T20:23:35.957Z,74.66
2023-01-13T20:26:02.415Z,73.39
2023-01-13T20:28:28.882Z,70.76
2023-01-13T20:30:55.783Z,74.47
2023-01-13T20:33:22.172Z,72.88
2023-01-13T20:35:56.826Z,69.49
2023-01-13T20:38:23.246Z,71.22
2023-01-13T20:41:01.470Z,72.20
2023-01-13T20:43:28.105Z,73.00
2023-01-13T20:45:54.533Z,74.46
2023-01-13T20:48:20.945Z,73.20
2023-01-13T20:50:53.438Z,72.05
2023-01-13T20:53:19.867Z,73.25
2023-01-13T20:55:46.309Z,71.90
2023-01-13T20:58:12.715Z,72.47
2023-01-13T21:00:39.220Z,70.71
2023-01-13T21:03:05.674Z,70.78
2023-01-13T21:05:33.256Z,70.51
2023-01-13T21:07:59.806Z,73.09
2023-01-13T21:10:26.237Z,68.01
2023-01-13T21:13:11.381Z,67.86
2023-01-13T21:15:37.786Z,67.64
2023-01-13T21:18:22.720Z,70.04
2023-01-13T21:20:50.794Z,67.91
2023-01-13T21:23:17.200Z,68.41
2023-01-13T21:25:43.642Z,67.54
2023-01-13T21:28:11.638Z,66.35
2023-01-13T21:30:39.184Z,66.11
2023-01-13T21:33:06.287Z,69.08
2023-01-13T21:35:32.875Z,69.01
2023-01-13T21:37:59.437Z,68.83
2023-01-13T21:40:26.053Z,66.68
2023-01-13T21:43:10.825Z,67.96
2023-01-13T21:46:14.526Z,68.16
2023-01-13T21:48:40.979Z,67.92
2023-01-13T21:51:07.402Z,66.54
2023-01-13T21:53:33.861Z,67.31
2023-01-13T21:56:00.278Z,64.88
2023-01-13T21:58:26.708Z,63.74
2023-01-13T22:00:53.980Z,63.40
2023-01-13T22:03:20.491Z,66.34
2023-01-13T22:05:53.740Z,66.96
2023-01-13T22:08:20.139Z,65.32
2023-01-13T22:10:57.466Z,66.06
2023-01-13T22:13:42.816Z,64.72
2023-01-13T22:16:09.464Z,64.61
2023-01-13T22:18:36.020Z,66.18
2023-01-13T22:21:02.443Z,65.87
2023-01-13T22:23:28.907Z,64.06
2023-01-13T22:26:02.943Z,63.69
2023-01-13T22:28:34.226Z,64.87
2023-01-13T22:31:01.235Z,66.34
2023-01-13T22:33:27.749Z,65.73
2023-01-13T22:35:55.884Z,65.90
2023-01-13T22:38:23.713Z,67.59
2023-01-13T22:41:00.682Z,65.95
2023-01-13T22:43:27.621Z,66.37
2023-01-13T22:45:58.174Z,66.15
2023-01-13T22:48:24.647Z,63.35
2023-01-13T22:50:51.215Z,63.09
2023-01-13T22:53:17.883Z,65.28
2023-01-13T22:55:44.472Z,65.74
2023-01-13T22:58:10.858Z,64.64
2023-01-13T23:00:37.384Z,68.02
2023-01-13T23:03:05.153Z,65.35
2023-01-13T23:05:31.560Z,65.20
2023-01-13T23:07:57.956Z,66.98
2023-01-13T23:10:24.399Z,66.58
2023-01-13T23:12:50.803Z,66.71
2023-01-13T23:15:17.306Z,67.35
2023-01-13T23:17:43.721Z,66.79
2023-01-13T23:20:10.840Z,69.36
2023-01-13T23:22:38.643Z,67.08
2023-01-13T23:25:05.621Z,66.74
2023-01-13T23:27:32.045Z,69.93
2023-01-13T23:29:58.435Z,71.48
2023-01-13T23:32:24.911Z,71.45
2023-01-13T23:34:51.384Z,71.96
2023-01-13T23:37:17.788Z,72.44
2023-01-13T23:39:44.481Z,73.16
2023-01-13T23:42:10.924Z,72.77
2023-01-13T23:44:37.340Z,73.68
2023-01-13T23:47:03.895Z,72.55
2023-01-13T23:49:31.359Z,71.94
2023-01-13T23:51:57.774Z,73.59
2023-01-13T23:54:24.388Z,71.79
2023-01-13T23:56:52.444Z,71.58
2023-01-13T23:59:19.924Z,72.60
